Rollingstone, Minnesota
Current Conditions -  °F | °C
As of 12:34 PM on Thursday 27 Nov 2014 (Local Time) from KONA Reporting Station
Clear Clear  
Wind Chill:   Ceiling: Unl
Heat Index: 12°   Visibility: 10mi
Dew Point:   Wind: 7mph
Humidity: 62%   Direction: 330°NNW
Pressure: 30.48"   Gusts: NA
Location:  44.1°N, 91.82°W
Report Text: KONA 271834Z AUTO 33006KT 10SM CLR M11/M17 A3048 RMK AO2
Loading
Personal Weather Stations






























Interactive Weather Map New forecast layout! Learn more

10-Day Weather Forecast

Advertisements
Track Severe Weather on mobile